Gijón Campus
latitud = 43° 31' 23''N | Longitud = 005° 37' 16''W | altura s/n = 26m
fecha-hora | temperatura | viento dirección-velocidad-rachas | humedad | presión

  • 03-04-2020 21:00:00 | 11.60°C | Este-32.00 km/h - 49.00 km/h | 85.00% | 0.00 hPa
  • 03-04-2020 20:00:00 | 12.00°C | Este-31.00 km/h - 46.00 km/h | 79.00% | 0.00 hPa
  • 03-04-2020 19:00:00 | 13.00°C | Este-31.00 km/h - 50.00 km/h | 74.00% | 0.00 hPa
  • 03-04-2020 18:00:00 | 13.30°C | Este-33.00 km/h - 51.00 km/h | 69.00% | 0.00 hPa
  • 03-04-2020 17:00:00 | 14.20°C | Este-32.00 km/h - 49.00 km/h | 66.00% | 0.00 hPa
  • 03-04-2020 16:00:00 | 14.00°C | Este-28.00 km/h - 42.00 km/h | 67.00% | 0.00 hPa
  • 03-04-2020 15:00:00 | 13.30°C | Este-28.00 km/h - 43.00 km/h | 67.00% | 0.00 hPa
  • 03-04-2020 14:00:00 | 13.60°C | Este-30.00 km/h - 44.00 km/h | 70.00% | 0.00 hPa
  • 03-04-2020 13:00:00 | 14.30°C | Este-26.00 km/h - 0.00 km/h | 70.00% | 0.00 hPa
  • 03-04-2020 12:00:00 | 14.10°C | Este-21.00 km/h - 30.00 km/h | 68.00% | 0.00 hPa
  • 03-04-2020 11:00:00 | 13.60°C | Este-17.00 km/h - 24.00 km/h | 73.00% | 0.00 hPa
  • 03-04-2020 10:00:00 | 12.10°C | Este-15.00 km/h - 23.00 km/h | 74.00% | 0.00 hPa
  • 03-04-2020 09:00:00 | 10.20°C | Sudeste-13.00 km/h - 23.00 km/h | 81.00% | 0.00 hPa
  • 03-04-2020 08:00:00 | 9.90°C | Este-16.00 km/h - 22.00 km/h | 78.00% | 0.00 hPa
  • 03-04-2020 07:00:00 | 10.10°C | Sudeste-14.00 km/h - 24.00 km/h | 78.00% | 0.00 hPa
  • 03-04-2020 06:00:00 | 10.70°C | Este-13.00 km/h - 24.00 km/h | 76.00% | 0.00 hPa
  • 03-04-2020 05:00:00 | 10.60°C | Sudeste-12.00 km/h - 22.00 km/h | 74.00% | 0.00 hPa
  • 03-04-2020 04:00:00 | 10.90°C | Este-13.00 km/h - 23.00 km/h | 73.00% | 0.00 hPa
  • 03-04-2020 03:00:00 | 10.80°C | Este-8.00 km/h - 22.00 km/h | 68.00% | 0.00 hPa
  • 03-04-2020 02:00:00 | 10.80°C | Este-6.00 km/h - 22.00 km/h | 70.00% | 0.00 hPa
  • 03-04-2020 01:00:00 | 10.70°C | Este-8.00 km/h - 20.00 km/h | 71.00% | 0.00 hPa
  • 03-04-2020 00:00:00 | 10.80°C | Sudeste-7.00 km/h - 21.00 km/h | 74.00% | 0.00 hPa
  • 02-04-2020 23:00:00 | 10.90°C | Sudeste-8.00 km/h - 24.00 km/h | 78.00% | 0.00 hPa
  • 02-04-2020 22:00:00 | 11.20°C | Este-8.00 km/h - 20.00 km/h | 79.00% | 0.00 hPa
    • Información sobre el estado de las mareas, altura de la marejada, temperatura del agua y otros datos de Gijón en Asturias.

      Surf Gijón